createdAt,value
2022-11-28T00:01:23.008Z,14.60
2022-11-28T00:03:50.869Z,14.70
2022-11-28T00:06:19.437Z,14.70
2022-11-28T00:08:47.644Z,14.60
2022-11-28T00:11:17.806Z,14.70
2022-11-28T00:13:46.495Z,14.70
2022-11-28T00:16:17.059Z,14.80
2022-11-28T00:18:45.353Z,14.90
2022-11-28T00:21:14.742Z,15.00
2022-11-28T00:23:43.737Z,14.70
2022-11-28T00:26:13.499Z,14.30
2022-11-28T00:28:42.921Z,14.30
2022-11-28T00:31:14.417Z,14.30
2022-11-28T00:33:42.497Z,14.20
2022-11-28T00:36:11.077Z,14.20
2022-11-28T00:38:39.054Z,14.10
2022-11-28T00:41:09.597Z,14.30
2022-11-28T00:43:37.700Z,14.30
2022-11-28T00:46:07.799Z,14.30
2022-11-28T00:48:36.823Z,14.50
2022-11-28T00:51:09.659Z,14.70
2022-11-28T00:53:38.613Z,14.90
2022-11-28T00:56:07.446Z,14.80
2022-11-28T00:58:38.823Z,14.90
2022-11-28T01:01:12.423Z,14.50
2022-11-28T01:03:40.659Z,14.60
2022-11-28T01:06:09.627Z,14.60
2022-11-28T01:08:37.540Z,14.50
2022-11-28T01:11:06.245Z,14.60
2022-11-28T01:13:34.109Z,14.70
2022-11-28T01:16:02.108Z,14.90
2022-11-28T01:18:31.342Z,15.00
2022-11-28T01:20:59.186Z,15.20
2022-11-28T01:23:27.061Z,15.20
2022-11-28T01:25:54.963Z,15.00
2022-11-28T01:28:23.259Z,14.90
2022-11-28T01:30:51.354Z,14.90
2022-11-28T01:33:19.441Z,14.70
2022-11-28T01:35:57.187Z,14.60
2022-11-28T01:38:25.457Z,14.40
2022-11-28T01:40:53.948Z,14.40
2022-11-28T01:43:22.834Z,14.50
2022-11-28T01:45:50.751Z,14.60
2022-11-28T01:48:25.809Z,14.40
2022-11-28T01:50:57.754Z,14.50
2022-11-28T01:53:29.744Z,14.40
2022-11-28T01:56:01.182Z,14.40
2022-11-28T01:58:30.245Z,14.40
2022-11-28T02:00:59.119Z,14.60
2022-11-28T02:03:31.901Z,14.60
2022-11-28T02:06:01.389Z,14.60
2022-11-28T02:08:32.399Z,14.80
2022-11-28T02:11:13.517Z,14.80
2022-11-28T02:13:52.800Z,14.70
2022-11-28T02:16:34.472Z,15.00
2022-11-28T02:19:26.366Z,14.80
2022-11-28T02:22:02.112Z,14.60
2022-11-28T02:24:57.986Z,14.40
2022-11-28T02:27:44.504Z,14.60
2022-11-28T02:30:19.552Z,14.90
2022-11-28T02:33:15.244Z,15.00
2022-11-28T02:35:53.754Z,15.00
2022-11-28T02:38:30.410Z,14.90
2022-11-28T02:41:04.575Z,14.60
2022-11-28T02:43:41.674Z,14.70
2022-11-28T02:46:15.444Z,14.50
2022-11-28T02:48:50.627Z,14.50
2022-11-28T02:51:29.390Z,14.10
2022-11-28T02:53:59.509Z,14.10
2022-11-28T02:56:27.469Z,14.10
2022-11-28T02:58:55.351Z,14.10
2022-11-28T03:01:26.580Z,14.20
2022-11-28T03:04:18.361Z,14.10
2022-11-28T03:06:58.290Z,14.00
2022-11-28T03:09:43.131Z,14.10
2022-11-28T03:12:21.497Z,14.20
2022-11-28T03:14:55.698Z,13.80
2022-11-28T03:17:33.314Z,13.90
2022-11-28T03:20:16.442Z,13.90
2022-11-28T03:22:59.397Z,14.00
2022-11-28T03:25:32.398Z,14.30
2022-11-28T03:28:04.315Z,14.60
2022-11-28T03:30:40.038Z,14.50
2022-11-28T03:33:09.542Z,14.50
2022-11-28T03:35:47.081Z,14.60
2022-11-28T03:38:26.147Z,14.80
2022-11-28T03:40:57.340Z,15.20
2022-11-28T03:43:29.402Z,15.50
2022-11-28T03:46:01.887Z,15.70
2022-11-28T03:48:33.686Z,15.80
2022-11-28T03:51:07.261Z,15.90
2022-11-28T03:53:52.596Z,16.00
2022-11-28T03:56:26.331Z,16.00
2022-11-28T03:59:00.764Z,16.10
2022-11-28T04:01:34.304Z,16.00
2022-11-28T04:04:12.913Z,15.80
2022-11-28T04:06:54.015Z,15.90
2022-11-28T04:09:32.627Z,15.50
2022-11-28T04:12:08.990Z,15.60
2022-11-28T04:14:42.460Z,15.70
2022-11-28T04:17:14.904Z,15.60
2022-11-28T04:19:47.501Z,15.60
2022-11-28T04:22:20.760Z,15.80
2022-11-28T04:24:52.780Z,15.80
2022-11-28T04:27:23.793Z,15.90
2022-11-28T04:29:57.616Z,16.00
2022-11-28T04:32:27.270Z,16.00
2022-11-28T04:34:59.158Z,15.90
2022-11-28T04:37:30.418Z,15.70
2022-11-28T04:39:59.041Z,15.60
2022-11-28T04:42:32.064Z,15.40
2022-11-28T04:45:07.451Z,15.40
2022-11-28T04:47:35.450Z,15.40
2022-11-28T04:50:03.354Z,15.30
2022-11-28T04:52:37.043Z,15.10
2022-11-28T04:55:12.260Z,14.90
2022-11-28T04:57:43.278Z,14.80
2022-11-28T05:00:13.780Z,14.50
2022-11-28T05:02:43.575Z,14.40
2022-11-28T05:05:14.626Z,14.60
2022-11-28T05:07:43.948Z,14.50
2022-11-28T05:10:13.410Z,14.40
2022-11-28T05:12:41.258Z,14.40
2022-11-28T05:15:10.324Z,14.30
2022-11-28T05:17:42.222Z,14.30
2022-11-28T05:20:11.156Z,14.40
2022-11-28T05:22:39.018Z,14.50
2022-11-28T05:25:08.963Z,14.50
2022-11-28T05:27:37.672Z,14.70
2022-11-28T05:30:06.851Z,14.70
2022-11-28T05:32:36.270Z,14.50
2022-11-28T05:35:05.132Z,14.40
2022-11-28T05:37:33.062Z,14.60
2022-11-28T05:40:00.990Z,14.70
2022-11-28T05:42:33.464Z,14.80
2022-11-28T05:45:01.312Z,15.00
2022-11-28T05:47:31.817Z,15.30
2022-11-28T05:49:59.776Z,15.70
2022-11-28T05:52:32.115Z,16.00
2022-11-28T05:55:01.516Z,16.00
2022-11-28T05:57:32.868Z,16.20
2022-11-28T06:00:00.837Z,16.10
2022-11-28T06:02:28.801Z,15.50
2022-11-28T06:04:56.809Z,15.60
2022-11-28T06:07:24.761Z,15.50
2022-11-28T06:09:52.876Z,15.60
2022-11-28T06:12:20.720Z,15.40
2022-11-28T06:14:49.921Z,15.40
2022-11-28T06:17:17.827Z,15.10
2022-11-28T06:19:45.758Z,15.00
2022-11-28T06:22:13.656Z,15.10
2022-11-28T06:24:41.541Z,15.20
2022-11-28T06:27:09.376Z,15.00
2022-11-28T06:29:37.215Z,14.70
2022-11-28T06:32:06.500Z,14.70
2022-11-28T06:34:34.484Z,14.70
2022-11-28T06:37:02.382Z,14.30
2022-11-28T06:39:30.239Z,14.40
2022-11-28T06:41:58.092Z,14.70
2022-11-28T06:44:25.931Z,15.00
2022-11-28T06:46:54.599Z,15.20
2022-11-28T06:49:23.849Z,15.40
2022-11-28T06:51:51.733Z,15.60
2022-11-28T06:54:19.560Z,15.80
2022-11-28T06:56:47.409Z,15.80
2022-11-28T06:59:15.249Z,15.70
2022-11-28T07:01:43.135Z,15.70
2022-11-28T07:04:11.149Z,15.90
2022-11-28T07:06:40.368Z,15.70
2022-11-28T07:09:08.203Z,15.70
2022-11-28T07:11:36.100Z,15.90
2022-11-28T07:14:04.416Z,16.00
2022-11-28T07:16:34.071Z,16.10
2022-11-28T07:19:02.018Z,16.20
2022-11-28T07:21:30.658Z,16.20
2022-11-28T07:24:00.997Z,15.60
2022-11-28T07:26:28.842Z,15.40
2022-11-28T07:28:58.227Z,15.60
2022-11-28T07:31:31.622Z,15.70
2022-11-28T07:34:02.125Z,15.80
2022-11-28T07:36:30.341Z,15.90
2022-11-28T07:39:01.251Z,15.70
2022-11-28T07:41:29.707Z,15.70
2022-11-28T07:43:59.042Z,15.40
2022-11-28T07:46:28.557Z,15.30
2022-11-28T07:48:57.045Z,15.20
2022-11-28T07:51:27.671Z,14.70
2022-11-28T07:53:56.420Z,14.60
2022-11-28T07:56:39.349Z,14.60
2022-11-28T07:59:17.101Z,14.30
2022-11-28T08:01:45.118Z,14.40
2022-11-28T08:04:13.155Z,14.50
2022-11-28T08:06:43.335Z,14.90
2022-11-28T08:09:12.673Z,14.90
2022-11-28T08:11:42.903Z,15.10
2022-11-28T08:14:10.889Z,15.10
2022-11-28T08:16:41.253Z,15.30
2022-11-28T08:19:09.192Z,15.30
2022-11-28T08:21:37.505Z,15.40
2022-11-28T08:24:05.938Z,15.50
2022-11-28T08:26:34.151Z,15.60
2022-11-28T08:29:04.371Z,15.70
2022-11-28T08:31:34.506Z,15.60
2022-11-28T08:34:04.666Z,15.60
2022-11-28T08:36:32.591Z,15.50
2022-11-28T08:39:24.111Z,15.50
2022-11-28T08:41:49.708Z,15.50
2022-11-28T08:44:19.008Z,15.60
2022-11-28T08:46:46.936Z,15.30
2022-11-28T08:49:14.780Z,15.40
2022-11-28T08:51:42.753Z,15.70
2022-11-28T08:54:10.618Z,15.80
2022-11-28T08:56:38.486Z,15.90
2022-11-28T08:59:07.086Z,16.00
2022-11-28T09:01:36.360Z,16.10
2022-11-28T09:04:05.643Z,15.70
2022-11-28T09:06:33.510Z,15.80
2022-11-28T09:09:01.935Z,16.00
2022-11-28T09:11:29.814Z,15.80
2022-11-28T09:13:57.678Z,15.80
2022-11-28T09:16:25.588Z,15.70
2022-11-28T09:18:57.371Z,15.40
2022-11-28T09:21:25.364Z,15.30
2022-11-28T09:23:56.522Z,15.10
2022-11-28T09:26:25.785Z,15.30
2022-11-28T09:28:54.355Z,15.30
2022-11-28T09:31:22.665Z,15.20
2022-11-28T09:33:50.651Z,15.30
2022-11-28T09:36:21.717Z,15.50
2022-11-28T09:38:50.122Z,15.60
2022-11-28T09:41:30.556Z,15.40
2022-11-28T09:44:02.783Z,15.40
2022-11-28T09:46:35.492Z,15.60
2022-11-28T09:49:08.113Z,15.40
2022-11-28T09:51:46.484Z,15.40
2022-11-28T09:54:17.595Z,15.50
2022-11-28T09:56:47.576Z,15.60
2022-11-28T09:59:21.599Z,15.50
2022-11-28T10:01:56.049Z,15.60
2022-11-28T10:04:32.714Z,15.50
2022-11-28T10:07:07.544Z,15.70
2022-11-28T10:09:45.646Z,15.80
2022-11-28T10:12:28.133Z,15.70
2022-11-28T10:15:04.392Z,15.80
2022-11-28T10:17:44.173Z,15.90
2022-11-28T10:20:16.774Z,16.00
2022-11-28T10:22:49.750Z,16.10
2022-11-28T10:25:21.527Z,16.10
2022-11-28T10:27:51.097Z,15.80
2022-11-28T10:30:24.626Z,15.60
2022-11-28T10:33:02.548Z,15.50
2022-11-28T10:35:40.241Z,15.40
2022-11-28T10:38:13.554Z,15.50
2022-11-28T10:40:47.563Z,15.70
2022-11-28T10:43:28.075Z,15.80
2022-11-28T10:48:41.022Z,16.00
2022-11-28T10:51:25.240Z,15.80
2022-11-28T10:54:05.624Z,15.30
2022-11-28T10:56:42.811Z,15.00
2022-11-28T10:59:19.957Z,14.90
2022-11-28T11:01:50.563Z,14.80
2022-11-28T11:04:22.226Z,14.70
2022-11-28T11:07:16.292Z,14.70
2022-11-28T11:09:47.146Z,14.70
2022-11-28T11:12:21.639Z,14.60
2022-11-28T11:14:49.514Z,14.50
2022-11-28T11:17:35.463Z,14.40
2022-11-28T11:20:20.474Z,14.30
2022-11-28T11:22:56.563Z,14.20
2022-11-28T11:25:27.126Z,14.20
2022-11-28T11:27:57.632Z,14.20
2022-11-28T11:30:29.511Z,14.20
2022-11-28T11:32:58.308Z,14.10
2022-11-28T11:35:28.928Z,14.20
2022-11-28T11:38:17.242Z,14.20
2022-11-28T11:40:46.760Z,14.20
2022-11-28T11:43:29.167Z,14.20
2022-11-28T11:46:08.885Z,14.20
2022-11-28T11:48:38.879Z,14.10
2022-11-28T11:51:07.614Z,14.10
2022-11-28T11:53:35.564Z,14.10
2022-11-28T11:56:05.183Z,14.30
2022-11-28T11:58:42.270Z,14.30
2022-11-28T12:01:12.909Z,14.20
2022-11-28T12:03:42.947Z,14.10
2022-11-28T12:06:16.917Z,14.10
2022-11-28T12:08:50.218Z,14.10
2022-11-28T12:11:25.099Z,14.20
2022-11-28T12:13:53.205Z,14.30
2022-11-28T12:16:42.108Z,14.10
2022-11-28T12:19:24.043Z,14.30
2022-11-28T12:22:03.830Z,14.40
2022-11-28T12:24:40.292Z,14.40
2022-11-28T12:27:17.111Z,14.50
2022-11-28T12:29:55.572Z,14.40
2022-11-28T12:32:35.094Z,14.40
2022-11-28T12:35:20.787Z,14.40
2022-11-28T12:38:12.297Z,14.40
2022-11-28T12:41:01.878Z,14.40
2022-11-28T12:43:46.730Z,14.30
2022-11-28T12:46:23.046Z,14.20
2022-11-28T12:49:08.316Z,14.20
2022-11-28T12:51:50.251Z,14.20
2022-11-28T12:54:41.017Z,14.40
2022-11-28T12:57:17.342Z,14.70
2022-11-28T13:00:02.106Z,14.80
2022-11-28T13:02:43.557Z,14.80
2022-11-28T13:05:21.766Z,14.50
2022-11-28T13:08:06.408Z,14.60
2022-11-28T13:10:43.281Z,14.50
2022-11-28T13:13:18.064Z,14.40
2022-11-28T13:16:00.632Z,14.40
2022-11-28T13:18:39.564Z,14.40
2022-11-28T13:21:14.861Z,14.10
2022-11-28T13:23:49.137Z,14.10
2022-11-28T13:26:25.976Z,14.00
2022-11-28T13:28:59.117Z,14.00
2022-11-28T13:31:35.437Z,14.00
2022-11-28T13:34:04.230Z,14.00
2022-11-28T13:39:34.276Z,14.20
2022-11-28T13:43:02.222Z,14.10
2022-11-28T13:45:07.125Z,13.70
2022-11-28T13:47:37.437Z,13.80
2022-11-28T13:50:34.520Z,13.90
2022-11-28T13:53:04.185Z,13.90
2022-11-28T13:55:40.667Z,13.90
2022-11-28T13:58:22.428Z,13.90
2022-11-28T14:01:03.845Z,14.00
2022-11-28T14:03:36.644Z,14.20
2022-11-28T14:06:07.834Z,14.20
2022-11-28T14:08:39.545Z,14.20
2022-11-28T14:11:30.804Z,14.30
2022-11-28T14:14:10.520Z,14.50
2022-11-28T14:16:53.577Z,14.50
2022-11-28T14:19:34.119Z,14.40
2022-11-28T14:22:14.381Z,14.30
2022-11-28T14:24:55.350Z,14.50
2022-11-28T14:27:26.346Z,14.70
2022-11-28T14:29:56.773Z,14.80
2022-11-28T14:32:33.719Z,14.80
2022-11-28T14:35:04.497Z,14.80
2022-11-28T14:37:52.028Z,14.70
2022-11-28T14:41:06.130Z,14.60
2022-11-28T14:43:40.452Z,14.60
2022-11-28T14:46:27.051Z,14.60
2022-11-28T14:49:20.496Z,14.70
2022-11-28T14:52:37.166Z,14.70
2022-11-28T14:54:59.530Z,14.70
2022-11-28T14:57:30.417Z,14.80
2022-11-28T15:00:00.118Z,14.80
2022-11-28T15:02:55.845Z,14.80
2022-11-28T15:05:45.930Z,14.90
2022-11-28T15:08:35.846Z,15.00
2022-11-28T15:11:20.583Z,15.00
2022-11-28T15:14:04.220Z,15.00
2022-11-28T15:16:34.367Z,14.90
2022-11-28T15:19:07.361Z,14.90
2022-11-28T15:21:44.621Z,15.00
2022-11-28T15:24:28.874Z,15.00
2022-11-28T15:26:58.654Z,14.90
2022-11-28T15:29:28.109Z,14.80
2022-11-28T15:31:58.312Z,14.90
2022-11-28T15:34:29.828Z,14.90
2022-11-28T15:37:00.477Z,14.90
2022-11-28T15:39:34.933Z,14.90
2022-11-28T15:42:04.659Z,14.80
2022-11-28T15:44:33.144Z,14.80
2022-11-28T15:47:01.334Z,14.70
2022-11-28T15:49:34.117Z,14.60
2022-11-28T15:52:04.522Z,14.30
2022-11-28T15:54:39.226Z,13.90
2022-11-28T15:57:08.110Z,13.60
2022-11-28T15:59:36.622Z,13.50
2022-11-28T16:02:15.897Z,13.20
2022-11-28T16:04:44.481Z,13.20
2022-11-28T16:07:15.322Z,13.30
2022-11-28T16:09:57.156Z,13.30
2022-11-28T16:12:25.353Z,13.30
2022-11-28T16:14:56.157Z,13.20
2022-11-28T16:17:27.602Z,13.70
2022-11-28T16:19:57.018Z,13.40
2022-11-28T16:22:31.298Z,12.70
2022-11-28T16:25:13.849Z,12.70
2022-11-28T16:27:45.445Z,12.90
2022-11-28T16:30:29.268Z,13.00
2022-11-28T16:32:57.856Z,13.30
2022-11-28T16:35:29.357Z,13.50
2022-11-28T16:38:14.621Z,13.60
2022-11-28T16:40:44.572Z,13.80
2022-11-28T16:43:22.014Z,13.90
2022-11-28T16:45:59.038Z,13.90
2022-11-28T16:48:29.506Z,13.70
2022-11-28T16:51:29.847Z,13.50
2022-11-28T16:53:59.457Z,13.40
2022-11-28T16:56:44.290Z,13.30
2022-11-28T16:59:14.427Z,13.30
2022-11-28T17:01:43.976Z,13.40
2022-11-28T17:04:21.808Z,13.40
2022-11-28T17:06:50.310Z,13.50
2022-11-28T17:09:18.417Z,13.70
2022-11-28T17:11:51.779Z,13.70
2022-11-28T17:14:19.635Z,13.70
2022-11-28T17:16:47.598Z,13.60
2022-11-28T17:19:15.468Z,13.60
2022-11-28T17:21:46.175Z,13.50
2022-11-28T17:24:17.809Z,13.30
2022-11-28T17:26:47.379Z,13.10
2022-11-28T17:29:16.434Z,13.20
2022-11-28T17:31:46.761Z,13.30
2022-11-28T17:34:17.650Z,13.40
2022-11-28T17:36:46.090Z,13.40
2022-11-28T17:39:14.341Z,13.50
2022-11-28T17:41:42.740Z,13.70
2022-11-28T17:44:17.643Z,14.20
2022-11-28T17:46:45.553Z,14.40
2022-11-28T17:49:13.582Z,14.50
2022-11-28T17:51:41.840Z,14.60
2022-11-28T17:54:11.314Z,14.70
2022-11-28T17:56:39.167Z,14.80
2022-11-28T17:59:07.015Z,14.80
2022-11-28T18:01:36.429Z,15.00
2022-11-28T18:04:05.051Z,15.20
2022-11-28T18:06:33.565Z,15.10
2022-11-28T18:09:08.617Z,15.00
2022-11-28T18:11:39.429Z,15.10
2022-11-28T18:14:07.446Z,15.10
2022-11-28T18:16:36.665Z,15.20
2022-11-28T18:19:04.630Z,15.10
2022-11-28T18:21:32.696Z,15.10
2022-11-28T18:24:00.544Z,14.90
2022-11-28T18:26:28.609Z,14.80
2022-11-28T18:28:56.780Z,14.70
2022-11-28T18:31:26.550Z,14.60
2022-11-28T18:34:01.582Z,14.60
2022-11-28T18:36:31.527Z,14.60
2022-11-28T18:39:00.791Z,14.30
2022-11-28T18:41:29.739Z,14.30
2022-11-28T18:43:57.948Z,14.30
2022-11-28T18:46:26.528Z,14.30
2022-11-28T18:48:55.918Z,14.30
2022-11-28T18:51:26.067Z,14.20
2022-11-28T18:53:54.948Z,14.20
2022-11-28T18:56:23.359Z,14.20
2022-11-28T18:58:52.845Z,14.30
2022-11-28T19:01:23.063Z,14.60
2022-11-28T19:03:52.326Z,14.50
2022-11-28T19:06:22.582Z,14.60
2022-11-28T19:08:54.494Z,14.60
2022-11-28T19:11:22.561Z,14.50
2022-11-28T19:13:51.541Z,14.60
2022-11-28T19:16:21.471Z,14.60
2022-11-28T19:18:49.370Z,14.70
2022-11-28T19:21:19.896Z,14.70
2022-11-28T19:23:49.353Z,14.80
2022-11-28T19:26:19.311Z,14.90
2022-11-28T19:28:47.541Z,14.90
2022-11-28T19:31:20.005Z,14.90
2022-11-28T19:33:49.360Z,14.90
2022-11-28T19:36:17.222Z,14.70
2022-11-28T19:38:45.121Z,14.70
2022-11-28T19:41:15.824Z,14.70
2022-11-28T19:43:44.381Z,14.70
2022-11-28T19:46:13.202Z,14.60
2022-11-28T19:48:42.566Z,14.60
2022-11-28T19:51:12.918Z,14.50
2022-11-28T19:53:42.894Z,14.40
2022-11-28T19:56:15.869Z,13.90
2022-11-28T19:58:44.350Z,13.80
2022-11-28T20:01:14.155Z,13.50
2022-11-28T20:03:43.069Z,13.40
2022-11-28T20:06:11.671Z,13.40
2022-11-28T20:08:40.165Z,13.50
2022-11-28T20:11:09.701Z,13.60
2022-11-28T20:13:38.881Z,13.60
2022-11-28T20:16:08.794Z,13.70
2022-11-28T20:18:37.776Z,13.70
2022-11-28T20:21:07.066Z,13.80
2022-11-28T20:23:35.269Z,13.60
2022-11-28T20:26:04.979Z,13.60
2022-11-28T20:28:34.059Z,13.50
2022-11-28T20:31:04.147Z,13.40
2022-11-28T20:33:32.626Z,13.40
2022-11-28T20:36:07.577Z,13.30
2022-11-28T20:38:35.468Z,13.50
2022-11-28T20:41:03.983Z,13.50
2022-11-28T20:43:32.089Z,13.30
2022-11-28T20:46:05.092Z,13.30
2022-11-28T20:48:33.007Z,13.70
2022-11-28T20:51:00.923Z,13.90
2022-11-28T20:53:28.907Z,14.00
2022-11-28T20:56:01.177Z,14.00
2022-11-28T20:58:29.401Z,14.00
2022-11-28T21:00:57.928Z,14.20
2022-11-28T21:03:27.395Z,14.30
2022-11-28T21:06:00.866Z,14.40
2022-11-28T21:08:31.166Z,14.40
2022-11-28T21:10:59.026Z,14.50
2022-11-28T21:13:26.890Z,14.50
2022-11-28T21:15:54.736Z,14.50
2022-11-28T21:18:22.554Z,14.40
2022-11-28T21:20:52.826Z,14.40
2022-11-28T21:23:20.689Z,14.40
2022-11-28T21:25:48.505Z,14.30
2022-11-28T21:28:16.350Z,14.30
2022-11-28T21:30:47.745Z,14.20
2022-11-28T21:33:15.582Z,14.00
2022-11-28T21:35:43.420Z,13.90
2022-11-28T21:38:13.066Z,13.80
2022-11-28T21:40:40.926Z,13.90
2022-11-28T21:43:08.871Z,13.90
2022-11-28T21:45:36.800Z,13.60
2022-11-28T21:48:04.995Z,13.40
2022-11-28T21:50:32.780Z,13.40
2022-11-28T21:53:00.628Z,13.20
2022-11-28T21:55:29.848Z,12.90
2022-11-28T21:57:57.685Z,12.70
2022-11-28T22:00:51.518Z,12.50
2022-11-28T22:03:14.467Z,12.50
2022-11-28T22:05:42.484Z,12.40
2022-11-28T22:08:10.738Z,12.40
2022-11-28T22:10:40.059Z,12.20
2022-11-28T22:13:07.888Z,12.10
2022-11-28T22:15:35.767Z,12.10
2022-11-28T22:18:03.635Z,12.20
2022-11-28T22:20:31.485Z,12.50
2022-11-28T22:22:59.331Z,12.70
2022-11-28T22:25:27.200Z,12.60
2022-11-28T22:27:56.417Z,12.80
2022-11-28T22:30:24.242Z,12.90
2022-11-28T22:32:52.096Z,12.70
2022-11-28T22:35:19.930Z,12.60
2022-11-28T22:37:47.958Z,12.60
2022-11-28T22:40:16.781Z,12.80
2022-11-28T22:42:44.658Z,12.80
2022-11-28T22:45:13.852Z,12.90
2022-11-28T22:47:41.699Z,13.10
2022-11-28T22:50:10.256Z,12.90
2022-11-28T22:52:38.103Z,13.00
2022-11-28T22:55:06.698Z,13.10
2022-11-28T22:57:34.565Z,13.10
2022-11-28T23:00:02.392Z,12.90
2022-11-28T23:02:31.725Z,12.90
2022-11-28T23:04:59.634Z,13.10
2022-11-28T23:07:27.536Z,13.00
2022-11-28T23:09:55.420Z,12.90
2022-11-28T23:12:23.261Z,12.80
2022-11-28T23:14:51.776Z,12.70
2022-11-28T23:17:19.645Z,12.80
2022-11-28T23:19:48.838Z,12.90
2022-11-28T23:22:16.746Z,13.20
2022-11-28T23:24:44.706Z,13.30
2022-11-28T23:27:12.722Z,13.30
2022-11-28T23:29:40.548Z,13.10
2022-11-28T23:32:08.446Z,13.10
2022-11-28T23:34:36.292Z,13.20
2022-11-28T23:37:05.483Z,13.10
2022-11-28T23:39:33.350Z,13.30
2022-11-28T23:42:01.186Z,13.30
2022-11-28T23:44:29.514Z,13.10
2022-11-28T23:46:57.342Z,12.90
2022-11-28T23:49:25.183Z,13.00
2022-11-28T23:51:53.039Z,12.90
2022-11-28T23:54:22.458Z,12.80
2022-11-28T23:56:50.304Z,12.90
2022-11-28T23:59:18.180Z,13.10
